South Hamilton, Massachusetts
Current Conditions -  °F | °C
As of 9:53 AM on Friday 24 Oct 2014 (Local Time) from KBVY Reporting Station
Haze Haze  
Wind Chill: 50°   Ceiling: 900
Heat Index: 50°   Visibility: 2mi
Dew Point: 47°   Wind: 10mph
Humidity: 89%   Direction: 340°NNW
Pressure: 29.7"   Gusts: NA
Location:  42.61°N, 70.88°W
Report Text: KBVY 241353Z 34009KT 2SM BR BKN009 BKN012 OVC018 10/08 A2970 RMK AO2 RAE00B20E50 SLP053 P0000 T01000083
Loading
Personal Weather Stations






























Interactive Weather Map
Tropical Storm Tracking
New forecast layout! Learn more

10-Day Weather Forecast

Advertisements
Track Severe Weather on mobile